createdAt,value
2019-05-09T00:01:03.893Z,96.07
2019-05-09T00:03:33.522Z,96.32
2019-05-09T00:06:04.451Z,95.79
2019-05-09T00:08:33.473Z,95.77
2019-05-09T00:11:03.702Z,96.12
2019-05-09T00:13:34.103Z,96.23
2019-05-09T00:16:03.683Z,96.24
2019-05-09T00:18:33.642Z,95.92
2019-05-09T00:21:06.615Z,96.16
2019-05-09T00:23:35.052Z,95.33
2019-05-09T00:26:04.189Z,95.69
2019-05-09T00:28:36.099Z,95.64
2019-05-09T00:31:10.424Z,95.93
2019-05-09T00:33:39.428Z,95.83
2019-05-09T00:36:07.822Z,96.16
2019-05-09T00:38:40.844Z,96.06
2019-05-09T00:41:09.546Z,96.20
2019-05-09T00:43:38.642Z,96.40
2019-05-09T00:46:08.854Z,95.87
2019-05-09T00:48:43.845Z,95.98
2019-05-09T00:51:16.484Z,96.58
2019-05-09T00:53:46.559Z,96.73
2019-05-09T00:56:14.972Z,96.53
2019-05-09T00:58:44.079Z,96.05
2019-05-09T01:01:14.077Z,96.57
2019-05-09T01:03:43.267Z,96.56
2019-05-09T01:06:13.451Z,96.18
2019-05-09T01:08:44.065Z,96.04
2019-05-09T01:11:15.333Z,95.69
2019-05-09T01:13:43.441Z,95.96
2019-05-09T01:16:13.341Z,95.95
2019-05-09T01:18:43.751Z,95.45
2019-05-09T01:21:13.360Z,95.48
2019-05-09T01:23:43.637Z,95.27
2019-05-09T01:26:13.209Z,95.66
2019-05-09T01:28:44.045Z,95.02
2019-05-09T01:31:13.292Z,95.39
2019-05-09T01:33:49.445Z,95.45
2019-05-09T01:36:19.420Z,96.29
2019-05-09T01:38:47.856Z,95.85
2019-05-09T01:41:27.969Z,95.56
2019-05-09T01:43:48.408Z,95.54
2019-05-09T01:46:16.888Z,95.51
2019-05-09T01:48:45.309Z,95.01
2019-05-09T01:51:14.039Z,95.66
2019-05-09T01:53:44.183Z,95.42
2019-05-09T01:56:13.981Z,95.15
2019-05-09T01:58:43.184Z,94.90
2019-05-09T02:01:13.436Z,95.08
2019-05-09T02:03:43.727Z,94.60
2019-05-09T02:06:13.619Z,94.84
2019-05-09T02:08:43.775Z,94.89
2019-05-09T02:11:13.391Z,95.51
2019-05-09T02:13:44.077Z,94.53
2019-05-09T02:16:14.237Z,94.15
2019-05-09T02:18:46.966Z,94.58
2019-05-09T02:21:15.373Z,94.04
2019-05-09T02:23:43.812Z,94.14
2019-05-09T02:26:13.582Z,94.23
2019-05-09T02:28:43.281Z,94.90
2019-05-09T02:31:15.784Z,95.47
2019-05-09T02:33:45.450Z,94.77
2019-05-09T02:36:12.320Z,95.10
2019-05-09T02:38:40.778Z,94.54
2019-05-09T02:41:09.177Z,93.51
2019-05-09T02:43:38.947Z,93.28
2019-05-09T02:46:19.054Z,93.94
2019-05-09T02:48:49.513Z,93.77
2019-05-09T02:51:18.678Z,93.77
2019-05-09T02:53:48.586Z,94.75
2019-05-09T02:56:18.927Z,94.32
2019-05-09T02:58:48.914Z,94.65
2019-05-09T03:01:29.546Z,93.81
2019-05-09T03:03:58.911Z,93.61
2019-05-09T03:06:28.495Z,94.01
2019-05-09T03:08:59.350Z,93.96
2019-05-09T03:11:28.925Z,93.76
2019-05-09T03:13:58.608Z,94.25
2019-05-09T03:16:31.175Z,93.71
2019-05-09T03:19:00.054Z,94.32
2019-05-09T03:21:32.902Z,94.38
2019-05-09T03:24:01.458Z,93.88
2019-05-09T03:26:31.591Z,93.36
2019-05-09T03:29:09.584Z,92.96
2019-05-09T03:31:40.776Z,93.08
2019-05-09T03:34:09.826Z,93.83
2019-05-09T03:36:39.597Z,93.63
2019-05-09T03:39:10.326Z,94.17
2019-05-09T03:41:39.488Z,94.06
2019-05-09T03:44:12.525Z,93.93
2019-05-09T03:46:47.726Z,93.59
2019-05-09T03:49:18.182Z,93.61
2019-05-09T03:51:48.237Z,93.50
2019-05-09T03:54:18.914Z,93.48
2019-05-09T03:57:04.100Z,93.79
2019-05-09T03:59:34.174Z,93.46
2019-05-09T04:02:02.758Z,93.20
2019-05-09T04:04:38.394Z,93.02
2019-05-09T04:07:14.484Z,93.54
2019-05-09T04:09:47.867Z,93.14
2019-05-09T04:12:18.161Z,93.55
2019-05-09T04:14:47.986Z,91.90
2019-05-09T04:17:18.162Z,93.47
2019-05-09T04:19:47.854Z,92.22
2019-05-09T04:22:18.340Z,92.96
2019-05-09T04:24:50.923Z,92.71
2019-05-09T04:27:21.144Z,92.35
2019-05-09T04:29:49.621Z,92.76
2019-05-09T04:32:23.058Z,92.00
2019-05-09T04:34:54.018Z,92.30
2019-05-09T04:37:24.066Z,92.31
2019-05-09T04:39:59.558Z,92.22
2019-05-09T04:42:28.351Z,92.51
2019-05-09T04:45:03.560Z,92.74
2019-05-09T04:47:33.745Z,92.67
2019-05-09T04:50:01.633Z,92.56
2019-05-09T04:52:32.846Z,92.24
2019-05-09T04:55:03.196Z,91.30
2019-05-09T04:57:31.883Z,92.62
2019-05-09T05:00:00.514Z,91.68
2019-05-09T05:02:30.734Z,91.79
2019-05-09T05:07:48.325Z,91.88
2019-05-09T05:10:22.993Z,92.09
2019-05-09T05:12:51.586Z,92.44
2019-05-09T05:15:21.828Z,91.28
2019-05-09T05:17:50.376Z,91.45
2019-05-09T05:20:22.824Z,91.78
2019-05-09T05:22:58.241Z,91.39
2019-05-09T05:25:29.799Z,91.77
2019-05-09T05:27:58.118Z,91.46
2019-05-09T05:30:29.934Z,90.93
2019-05-09T05:33:00.077Z,90.27
2019-05-09T05:35:30.327Z,89.79
2019-05-09T05:37:58.843Z,89.37
2019-05-09T05:40:32.731Z,89.33
2019-05-09T05:43:02.490Z,89.75
2019-05-09T05:45:34.231Z,89.11
2019-05-09T05:48:04.423Z,89.04
2019-05-09T05:50:32.959Z,88.95
2019-05-09T05:53:03.213Z,89.89
2019-05-09T05:55:31.689Z,87.36
2019-05-09T05:58:00.271Z,88.31
2019-05-09T06:00:30.311Z,89.43
2019-05-09T06:02:58.957Z,87.64
2019-05-09T06:05:27.857Z,88.88
2019-05-09T06:07:57.631Z,88.63
2019-05-09T06:10:28.797Z,86.06
2019-05-09T06:12:57.530Z,85.34
2019-05-09T06:15:28.659Z,86.11
2019-05-09T06:17:57.883Z,88.40
2019-05-09T06:20:28.166Z,87.29
2019-05-09T06:22:58.202Z,87.52
2019-05-09T06:25:30.429Z,87.92
2019-05-09T06:27:58.480Z,86.99
2019-05-09T06:30:29.337Z,83.05
2019-05-09T06:32:59.920Z,85.59
2019-05-09T06:35:29.129Z,85.20
2019-05-09T06:37:58.828Z,83.30
2019-05-09T06:40:28.765Z,85.58
2019-05-09T06:43:00.110Z,84.63
2019-05-09T06:45:48.610Z,84.35
2019-05-09T06:48:18.099Z,83.99
2019-05-09T06:50:48.384Z,82.72
2019-05-09T06:53:18.132Z,83.43
2019-05-09T06:55:47.642Z,83.58
2019-05-09T06:58:33.456Z,82.09
2019-05-09T07:01:04.352Z,84.99
2019-05-09T07:03:34.480Z,85.55
2019-05-09T07:06:08.318Z,83.95
2019-05-09T07:08:38.118Z,83.24
2019-05-09T07:11:08.077Z,81.64
2019-05-09T07:13:39.508Z,79.87
2019-05-09T07:16:08.933Z,78.98
2019-05-09T07:18:38.299Z,82.04
2019-05-09T07:21:08.276Z,79.59
2019-05-09T07:23:37.437Z,79.71
2019-05-09T07:26:09.918Z,77.39
2019-05-09T07:28:38.602Z,78.59
2019-05-09T07:31:11.876Z,76.53
2019-05-09T07:33:48.253Z,77.75
2019-05-09T07:36:18.924Z,78.01
2019-05-09T07:38:47.815Z,78.43
2019-05-09T07:41:17.800Z,75.37
2019-05-09T07:43:47.874Z,76.05
2019-05-09T07:46:18.237Z,75.57
2019-05-09T07:48:48.479Z,75.65
2019-05-09T07:51:18.106Z,75.25
2019-05-09T07:53:48.194Z,75.90
2019-05-09T07:56:18.706Z,74.32
2019-05-09T07:58:47.814Z,75.99
2019-05-09T08:01:18.817Z,75.48
2019-05-09T08:03:48.840Z,76.75
2019-05-09T08:06:18.380Z,77.12
2019-05-09T08:08:47.651Z,76.21
2019-05-09T08:11:18.041Z,73.98
2019-05-09T08:13:49.518Z,72.46
2019-05-09T08:16:18.711Z,68.30
2019-05-09T08:18:48.286Z,69.99
2019-05-09T08:21:18.036Z,72.50
2019-05-09T08:23:48.561Z,69.25
2019-05-09T08:26:18.835Z,69.20
2019-05-09T08:28:48.109Z,68.61
2019-05-09T08:31:17.857Z,66.48
2019-05-09T08:33:48.455Z,65.07
2019-05-09T08:36:19.819Z,65.72
2019-05-09T08:38:47.891Z,65.00
2019-05-09T08:41:18.680Z,65.01
2019-05-09T08:43:48.379Z,67.74
2019-05-09T08:46:18.228Z,64.17
2019-05-09T08:48:49.931Z,62.12
2019-05-09T08:51:22.694Z,62.71
2019-05-09T08:53:51.216Z,64.52
2019-05-09T08:56:21.674Z,63.43
2019-05-09T08:58:51.247Z,61.70
2019-05-09T09:01:34.912Z,62.74
2019-05-09T09:04:08.132Z,61.02
2019-05-09T09:06:41.854Z,59.71
2019-05-09T09:09:10.342Z,59.25
2019-05-09T09:11:38.910Z,61.92
2019-05-09T09:14:09.456Z,63.09
2019-05-09T09:16:41.999Z,59.78
2019-05-09T09:19:09.546Z,60.40
2019-05-09T09:21:38.829Z,62.15
2019-05-09T09:24:12.457Z,61.06
2019-05-09T09:26:41.157Z,61.56
2019-05-09T09:29:11.275Z,57.02
2019-05-09T09:31:43.454Z,57.46
2019-05-09T09:34:18.276Z,54.83
2019-05-09T09:36:51.211Z,55.03
2019-05-09T09:39:21.530Z,52.73
2019-05-09T09:44:28.701Z,57.54
2019-05-09T09:46:58.081Z,58.25
2019-05-09T09:49:29.347Z,56.48
2019-05-09T09:51:58.761Z,58.62
2019-05-09T09:54:32.168Z,58.22
2019-05-09T09:57:00.858Z,56.86
2019-05-09T10:00:38.163Z,53.92
2019-05-09T10:02:43.286Z,55.87
2019-05-09T10:05:18.407Z,57.34
2019-05-09T10:07:47.703Z,57.71
2019-05-09T10:10:36.339Z,56.70
2019-05-09T10:13:12.893Z,55.15
2019-05-09T10:15:48.492Z,57.39
2019-05-09T10:18:27.636Z,55.81
2019-05-09T10:21:21.765Z,56.60
2019-05-09T10:27:08.798Z,57.94
2019-05-09T10:29:38.752Z,56.13
2019-05-09T10:32:09.296Z,53.54
2019-05-09T10:34:37.919Z,51.37
2019-05-09T10:37:07.750Z,51.16
2019-05-09T10:39:38.097Z,49.55
2019-05-09T10:42:25.020Z,49.31
2019-05-09T10:44:58.331Z,48.41
2019-05-09T10:47:31.221Z,50.49
2019-05-09T10:49:59.662Z,48.22
2019-05-09T10:52:28.624Z,47.45
2019-05-09T10:54:57.997Z,49.37
2019-05-09T10:57:31.486Z,49.11
2019-05-09T10:59:57.991Z,51.89
2019-05-09T11:02:28.097Z,51.91
2019-05-09T11:04:57.581Z,50.77
2019-05-09T11:07:28.739Z,49.37
2019-05-09T11:09:58.825Z,50.54
2019-05-09T11:12:27.570Z,52.70
2019-05-09T11:14:59.136Z,52.63
2019-05-09T11:17:28.385Z,49.47
2019-05-09T11:19:58.734Z,50.63
2019-05-09T11:22:29.292Z,50.70
2019-05-09T11:24:57.938Z,50.21
2019-05-09T11:27:29.650Z,49.26
2019-05-09T11:29:58.114Z,51.16
2019-05-09T11:32:27.713Z,53.85
2019-05-09T11:34:57.686Z,55.08
2019-05-09T11:37:26.409Z,55.90
2019-05-09T11:39:54.916Z,52.96
2019-05-09T11:42:23.332Z,52.08
2019-05-09T11:44:53.286Z,52.20
2019-05-09T11:47:31.986Z,53.68
2019-05-09T11:49:51.871Z,57.49
2019-05-09T11:52:20.275Z,57.51
2019-05-09T11:54:48.740Z,58.29
2019-05-09T11:57:19.123Z,59.12
2019-05-09T11:59:48.052Z,58.59
2019-05-09T12:02:18.106Z,57.57
2019-05-09T12:04:48.738Z,58.76
2019-05-09T12:07:17.837Z,59.23
2019-05-09T12:09:48.873Z,59.00
2019-05-09T12:12:19.325Z,59.27
2019-05-09T12:14:48.388Z,58.39
2019-05-09T12:17:19.694Z,57.99
2019-05-09T12:19:48.916Z,57.01
2019-05-09T12:22:19.133Z,57.25
2019-05-09T12:24:48.180Z,58.07
2019-05-09T12:27:18.738Z,56.20
2019-05-09T12:29:48.326Z,55.35
2019-05-09T12:32:18.717Z,50.38
2019-05-09T12:34:48.018Z,47.40
2019-05-09T12:37:18.409Z,49.29
2019-05-09T12:39:48.069Z,51.19
2019-05-09T12:42:18.543Z,51.98
2019-05-09T12:44:49.509Z,51.75
2019-05-09T12:47:19.114Z,53.69
2019-05-09T12:49:48.787Z,53.00
2019-05-09T12:52:18.532Z,52.79
2019-05-09T12:54:50.435Z,54.36
2019-05-09T12:57:19.396Z,55.14
2019-05-09T12:59:52.199Z,53.54
2019-05-09T13:02:21.050Z,53.82
2019-05-09T13:04:49.489Z,54.35
2019-05-09T13:07:17.977Z,53.95
2019-05-09T13:09:52.214Z,54.72
2019-05-09T13:12:18.043Z,53.53
2019-05-09T13:14:48.601Z,53.20
2019-05-09T13:17:18.415Z,51.51
2019-05-09T13:19:50.692Z,50.60
2019-05-09T13:22:19.119Z,51.71
2019-05-09T13:24:47.602Z,52.34
2019-05-09T13:27:18.700Z,50.24
2019-05-09T13:29:48.972Z,47.17
2019-05-09T13:32:18.024Z,46.88
2019-05-09T13:34:48.617Z,46.78
2019-05-09T13:37:18.840Z,47.58
2019-05-09T13:39:50.469Z,46.70
2019-05-09T13:42:21.056Z,47.33
2019-05-09T13:44:49.561Z,47.46
2019-05-09T13:47:18.107Z,48.11
2019-05-09T13:49:48.572Z,50.09
2019-05-09T13:52:19.789Z,49.37
2019-05-09T13:54:48.509Z,50.44
2019-05-09T13:57:18.794Z,51.60
2019-05-09T13:59:48.694Z,49.67
2019-05-09T14:02:18.765Z,50.08
2019-05-09T14:04:48.598Z,49.89
2019-05-09T14:07:19.249Z,51.01
2019-05-09T14:09:50.111Z,51.85
2019-05-09T14:12:17.818Z,50.16
2019-05-09T14:14:46.579Z,48.22
2019-05-09T14:17:15.123Z,48.69
2019-05-09T14:19:46.694Z,50.61
2019-05-09T14:22:13.799Z,48.12
2019-05-09T14:24:42.273Z,50.26
2019-05-09T14:27:12.022Z,51.55
2019-05-09T14:29:41.768Z,51.18
2019-05-09T14:32:12.750Z,51.59
2019-05-09T14:34:42.652Z,51.30
2019-05-09T14:37:13.985Z,51.30
2019-05-09T14:39:54.953Z,50.18
2019-05-09T14:42:12.682Z,50.17
2019-05-09T14:44:41.138Z,51.24
2019-05-09T14:47:09.568Z,51.90
2019-05-09T14:49:43.923Z,49.63
2019-05-09T14:52:08.987Z,51.73
2019-05-09T14:54:39.223Z,50.12
2019-05-09T14:57:09.609Z,49.95
2019-05-09T14:59:38.421Z,51.72
2019-05-09T15:02:09.136Z,51.55
2019-05-09T15:04:38.705Z,51.63
2019-05-09T15:07:07.618Z,53.42
2019-05-09T15:09:36.252Z,54.48
2019-05-09T15:12:04.705Z,52.75
2019-05-09T15:14:33.213Z,52.86
2019-05-09T15:17:02.892Z,53.14
2019-05-09T15:19:31.348Z,54.07
2019-05-09T15:22:00.899Z,54.54
2019-05-09T15:24:29.512Z,52.89
2019-05-09T15:26:58.184Z,52.96
2019-05-09T15:29:29.083Z,52.40
2019-05-09T15:32:04.506Z,52.80
2019-05-09T15:34:28.533Z,52.20
2019-05-09T15:36:58.222Z,53.11
2019-05-09T15:39:27.799Z,53.11
2019-05-09T15:41:57.973Z,51.85
2019-05-09T15:44:28.020Z,54.33
2019-05-09T15:47:09.584Z,52.63
2019-05-09T15:49:38.589Z,54.38
2019-05-09T15:52:07.481Z,55.39
2019-05-09T15:54:38.650Z,55.98
2019-05-09T15:57:17.651Z,55.15
2019-05-09T15:59:47.889Z,55.59
2019-05-09T16:02:18.888Z,55.78
2019-05-09T16:04:47.549Z,54.02
2019-05-09T16:07:19.347Z,53.86
2019-05-09T16:09:48.361Z,53.68
2019-05-09T16:12:18.436Z,53.19
2019-05-09T16:14:48.631Z,54.77
2019-05-09T16:17:19.138Z,55.39
2019-05-09T16:19:49.483Z,56.35
2019-05-09T16:22:18.951Z,55.98
2019-05-09T16:24:48.576Z,56.88
2019-05-09T16:27:17.333Z,57.31
2019-05-09T16:29:48.436Z,55.74
2019-05-09T16:32:18.360Z,57.45
2019-05-09T16:34:46.065Z,55.88
2019-05-09T16:37:14.821Z,57.03
2019-05-09T16:39:43.439Z,56.73
2019-05-09T16:42:11.920Z,56.89
2019-05-09T16:44:45.257Z,56.58
2019-05-09T16:47:13.838Z,56.16
2019-05-09T16:49:47.755Z,56.51
2019-05-09T16:52:17.942Z,55.74
2019-05-09T16:54:50.019Z,56.23
2019-05-09T16:57:18.293Z,56.78
2019-05-09T16:59:47.878Z,56.52
2019-05-09T17:02:24.468Z,57.49
2019-05-09T17:04:48.450Z,58.00
2019-05-09T17:07:18.048Z,57.96
2019-05-09T17:09:48.512Z,57.87
2019-05-09T17:12:18.607Z,59.37
2019-05-09T17:14:47.196Z,59.67
2019-05-09T17:17:17.772Z,59.78
2019-05-09T17:19:47.933Z,59.96
2019-05-09T17:22:20.581Z,59.48
2019-05-09T17:24:49.687Z,60.40
2019-05-09T17:27:18.792Z,60.76
2019-05-09T17:29:47.961Z,60.93
2019-05-09T17:32:18.302Z,61.75
2019-05-09T17:34:47.586Z,60.12
2019-05-09T17:37:17.723Z,60.18
2019-05-09T17:39:46.476Z,61.47
2019-05-09T17:42:18.249Z,60.93
2019-05-09T17:44:48.825Z,61.08
2019-05-09T17:47:17.561Z,61.46
2019-05-09T17:49:48.354Z,62.65
2019-05-09T17:52:18.291Z,60.82
2019-05-09T17:54:48.509Z,61.68
2019-05-09T17:57:18.785Z,61.59
2019-05-09T17:59:48.787Z,61.86
2019-05-09T18:02:18.948Z,62.19
2019-05-09T18:04:48.149Z,63.21
2019-05-09T18:07:18.279Z,63.21
2019-05-09T18:09:48.307Z,62.95
2019-05-09T18:12:19.109Z,63.13
2019-05-09T18:14:47.699Z,64.22
2019-05-09T18:17:17.951Z,64.48
2019-05-09T18:19:46.216Z,64.68
2019-05-09T18:22:14.634Z,65.19
2019-05-09T18:24:43.048Z,65.47
2019-05-09T18:27:11.477Z,65.11
2019-05-09T18:29:39.894Z,65.36
2019-05-09T18:32:28.252Z,65.85
2019-05-09T18:35:13.757Z,65.55
2019-05-09T18:37:42.187Z,66.00
2019-05-09T18:40:11.539Z,66.83
2019-05-09T18:42:39.935Z,66.82
2019-05-09T18:45:08.896Z,67.46
2019-05-09T18:47:41.473Z,68.52
2019-05-09T18:50:10.744Z,68.52
2019-05-09T18:52:39.299Z,69.01
2019-05-09T18:55:09.254Z,69.39
2019-05-09T18:57:37.737Z,69.30
2019-05-09T19:00:12.493Z,70.05
2019-05-09T19:02:41.638Z,70.49
2019-05-09T19:05:13.041Z,70.44
2019-05-09T19:07:40.092Z,71.08
2019-05-09T19:10:08.807Z,71.53
2019-05-09T19:12:37.205Z,72.04
2019-05-09T19:15:09.427Z,71.68
2019-05-09T19:17:39.483Z,71.88
2019-05-09T19:20:26.720Z,72.14
2019-05-09T19:22:55.148Z,72.87
2019-05-09T19:25:24.665Z,73.01
2019-05-09T19:27:59.147Z,73.80
2019-05-09T19:30:27.563Z,73.48
2019-05-09T19:32:55.987Z,73.40
2019-05-09T19:35:24.415Z,73.30
2019-05-09T19:37:52.830Z,73.23
2019-05-09T19:40:21.272Z,73.83
2019-05-09T19:42:49.553Z,74.15
2019-05-09T19:45:18.205Z,74.10
2019-05-09T19:47:46.616Z,74.35
2019-05-09T19:50:15.287Z,74.77
2019-05-09T19:52:43.728Z,75.38
2019-05-09T19:55:12.268Z,75.64
2019-05-09T19:57:40.685Z,75.52
2019-05-09T20:00:09.638Z,75.35
2019-05-09T20:02:38.079Z,75.96
2019-05-09T20:05:09.294Z,75.84
2019-05-09T20:07:37.708Z,76.01
2019-05-09T20:10:09.816Z,75.92
2019-05-09T20:12:55.990Z,76.05
2019-05-09T20:15:25.349Z,76.19
2019-05-09T20:17:53.828Z,76.57
2019-05-09T20:20:22.300Z,76.89
2019-05-09T20:22:53.095Z,77.59
2019-05-09T20:25:20.894Z,77.89
2019-05-09T20:27:49.331Z,77.97
2019-05-09T20:30:17.942Z,77.97
2019-05-09T20:32:46.378Z,78.13
2019-05-09T20:35:14.900Z,78.23
2019-05-09T20:37:43.488Z,78.35
2019-05-09T20:40:12.519Z,78.35
2019-05-09T20:42:41.155Z,78.44
2019-05-09T20:45:09.810Z,78.72
2019-05-09T20:47:38.439Z,78.68
2019-05-09T20:50:07.676Z,78.65
2019-05-09T20:52:36.318Z,78.90
2019-05-09T20:55:06.234Z,79.24
2019-05-09T20:57:34.832Z,79.20
2019-05-09T21:00:04.606Z,79.38
2019-05-09T21:02:33.223Z,79.52
2019-05-09T21:05:01.838Z,79.68
2019-05-09T21:07:32.128Z,79.54
2019-05-09T21:10:00.727Z,80.15
2019-05-09T21:12:29.333Z,80.07
2019-05-09T21:14:57.930Z,80.08
2019-05-09T21:17:26.538Z,80.59
2019-05-09T21:19:55.183Z,80.99
2019-05-09T21:22:23.842Z,81.02
2019-05-09T21:24:52.443Z,80.61
2019-05-09T21:27:21.056Z,80.72
2019-05-09T21:29:49.646Z,81.05
2019-05-09T21:32:18.260Z,81.10
2019-05-09T21:34:46.688Z,81.01
2019-05-09T21:37:15.085Z,81.04
2019-05-09T21:39:43.504Z,81.51
2019-05-09T21:42:11.914Z,81.88
2019-05-09T21:44:40.339Z,82.11
2019-05-09T21:47:08.749Z,82.34
2019-05-09T21:49:37.172Z,82.47
2019-05-09T21:52:05.645Z,82.27
2019-05-09T21:54:34.072Z,82.43
2019-05-09T21:57:02.529Z,82.17
2019-05-09T21:59:30.969Z,82.48
2019-05-09T22:01:59.453Z,82.49
2019-05-09T22:04:27.906Z,82.76
2019-05-09T22:06:56.325Z,83.00
2019-05-09T22:09:24.743Z,82.91
2019-05-09T22:11:53.177Z,82.53
2019-05-09T22:14:21.616Z,83.22
2019-05-09T22:16:50.046Z,82.52
2019-05-09T22:19:18.623Z,83.00
2019-05-09T22:21:47.055Z,83.15
2019-05-09T22:24:15.469Z,83.12
2019-05-09T22:26:43.891Z,82.56
2019-05-09T22:29:12.312Z,82.04
2019-05-09T22:31:40.726Z,82.75
2019-05-09T22:34:09.216Z,82.83
2019-05-09T22:36:37.632Z,82.86
2019-05-09T22:39:07.987Z,82.61
2019-05-09T22:41:36.387Z,83.22
2019-05-09T22:44:04.890Z,82.99
2019-05-09T22:46:33.302Z,82.98
2019-05-09T22:49:01.783Z,83.13
2019-05-09T22:51:30.189Z,83.50
2019-05-09T22:54:11.540Z,82.55
2019-05-09T22:56:28.746Z,82.82
2019-05-09T22:58:57.185Z,82.99
2019-05-09T23:01:25.604Z,82.35
2019-05-09T23:03:54.038Z,83.08
2019-05-09T23:06:22.465Z,82.22
2019-05-09T23:08:50.907Z,84.01
2019-05-09T23:11:19.314Z,83.78
2019-05-09T23:13:53.216Z,84.86
2019-05-09T23:16:22.934Z,85.61
2019-05-09T23:18:51.430Z,85.96
2019-05-09T23:21:19.856Z,85.74
2019-05-09T23:23:55.616Z,85.01
2019-05-09T23:26:24.384Z,85.40
2019-05-09T23:28:52.899Z,85.76
2019-05-09T23:31:22.955Z,86.02
2019-05-09T23:33:51.409Z,86.00
2019-05-09T23:36:19.830Z,86.31
2019-05-09T23:39:06.039Z,87.00
2019-05-09T23:41:34.466Z,87.15
2019-05-09T23:44:02.892Z,88.33
2019-05-09T23:46:31.344Z,88.29
2019-05-09T23:48:59.783Z,89.49
2019-05-09T23:51:45.011Z,90.13
2019-05-09T23:54:45.266Z,91.48
2019-05-09T23:57:23.153Z,92.57
